• Join FlightAware (Why Join?)
  • Login
  • US Flag 
10:16PM EST


 

Airport Tracker/Info


-or-


 

Live Flight TrackerFlight Track Log ✈ N153RB ✈ 25-Jul-2014 ✈ KBNA - KLUL

Flight Track Log - Related Links

Times and Time Zones

All times are in EDT time to prevent confusion due to time zone crossing. See the N153RB flight status page for this flight to view local times or setup timezone preferences in your user account.

Time Position Orientation Groundspeed Altitude Reporting Facility
EDT Latitude Longitude Course Direction KTS MPH feet Rate Location/Type
08:19PM 36.1667 -86.6667 12° North 211 243 3,000  Level Nashville TRACON
08:20PM 36.2167 -86.6833 345° North 230 265 5,700 3,240 Climbing Nashville TRACON
08:22PM 36.1600 -86.7667 230° Southwest 222 255 10,900 3,060 Climbing Memphis Center
08:23PM 36.0892 -86.8192 211° Southwest 279 321 13,500 2,520 Climbing Memphis Center
08:24PM 36.0067 -86.8772 210° Southwest 324 373 16,200 2,700 Climbing Memphis Center
08:25PM 35.8975 -86.9367 204° Southwest 357 411 19,200 2,700 Climbing Memphis Center
08:26PM 35.8011 -86.9897 204° Southwest 369 425 21,900 1,800 Climbing Memphis Center
08:27PM 35.7044 -87.0436 204° Southwest 374 430 23,000 660 Climbing Memphis Center
08:28PM 35.5944 -87.1047 204° Southwest 426 490 23,300 420 Climbing Memphis Center
08:29PM 35.4828 -87.1667 204° Southwest 433 498 23,900 540 Climbing Memphis Center
08:30PM 35.3742 -87.2256 204° Southwest 439 505 24,500 840 Climbing Memphis Center
08:31PM 35.2636 -87.2861 204° Southwest 439 505 25,700 720 Climbing Memphis Center
08:32PM 35.1328 -87.3583 204° Southwest 434 499 26,100 180 Climbing Memphis Center
08:33PM 35.0203 -87.4197 204° Southwest 440 506 26,100  Level Memphis Center
08:34PM 34.9064 -87.4817 204° Southwest 444 511 26,100  Level Memphis Center
08:35PM 34.7919 -87.5436 204° Southwest 447 514 26,100  Level Memphis Center
08:36PM 34.6781 -87.6053 204° Southwest 448 516 26,100  Level Memphis Center
08:37PM 34.5547 -87.6722 204° Southwest 453 521 26,100  Level Memphis Center
08:38PM 34.4375 -87.7369 204° Southwest 456 525 26,100 -120 Level Memphis Center
08:39PM 34.2961 -87.8122 204° Southwest 458 527 25,900 -780 Descending Memphis Center
08:40PM 34.1964 -87.8647 204° Southwest 458 527 24,500 -900 Descending Memphis Center
08:41PM 34.0564 -87.9394 204° Southwest 458 527 24,100 -240 Descending Memphis Center
08:42PM 33.9378 -88.0017 204° Southwest 463 533 24,100  Level Memphis Center
08:43PM 33.8192 -88.0656 204° Southwest 463 533 24,100  Level Memphis Center
08:44PM 33.7006 -88.1281 204° Southwest 467 537 24,100  Level Memphis Center
08:45PM 33.5825 -88.1906 204° Southwest 467 537 24,100  Level Memphis Center
08:46PM 33.4622 -88.2531 203° Southwest 467 537 24,100  Level Memphis Center
08:47PM 33.3433 -88.3158 204° Southwest 467 537 24,100  Level Memphis Center
08:48PM 33.2014 -88.3908 204° Southwest 467 537 24,100  Level Memphis Center
08:49PM 33.0822 -88.4508 203° Southwest 467 537 24,100 -60 Level Memphis Center
08:50PM 32.9642 -88.5128 204° Southwest 466 536 24,000 -1,020 Descending Memphis Center
08:52PM 32.8497 -88.5714 203° Southwest 453 521 22,100 -2,220 Descending Memphis Center
08:53PM 32.7283 -88.6353 204° Southwest 447 514 19,500 -2,400 Descending Memphis Center
08:54PM 32.6194 -88.6903 203° Southwest 433 498 17,200 -2,400 Descending Memphis Center
08:55PM 32.5158 -88.7461 204° Southwest 417 480 14,700 -2,040 Descending Memphis Center
08:56PM 32.4133 -88.7989 203° Southwest 407 468 13,100 -1,260 Descending Memphis Center
08:57PM 32.3239 -88.8422 202° Southwest 359 413 12,100 -1,080 Descending Memphis Center
08:58PM 32.2206 -88.8950 203° Southwest 342 394 10,900 -1,260 Descending Memphis Center
08:59PM 32.1369 -88.9394 204° Southwest 337 388 9,600 -1,860 Descending Memphis Center
09:00PM 32.0617 -88.9761 202° Southwest 305 351 7,100 -2,400 Descending Memphis Center
09:01PM 31.9914 -89.0117 203° Southwest 291 335 4,700 -2,400 Descending Memphis Center